sensor_id;sensor_type;location;lat;lon;timestamp;temperature;humidity
29713;DHT22;16623;53.632;10.016;2022-07-23T00:00:08;17.20;99.90
29713;DHT22;16623;53.632;10.016;2022-07-23T00:02:34;17.20;99.90
29713;DHT22;16623;53.632;10.016;2022-07-23T00:04:59;17.20;99.90
29713;DHT22;16623;53.632;10.016;2022-07-23T00:07:25;17.20;99.90
29713;DHT22;16623;53.632;10.016;2022-07-23T00:09:50;17.30;99.90
29713;DHT22;16623;53.632;10.016;2022-07-23T00:12:15;17.20;99.90
29713;DHT22;16623;53.632;10.016;2022-07-23T00:14:41;17.20;99.90
29713;DHT22;16623;53.632;10.016;2022-07-23T00:17:06;17.10;99.90
29713;DHT22;16623;53.632;10.016;2022-07-23T00:19:32;17.10;99.90
29713;DHT22;16623;53.632;10.016;2022-07-23T00:21:58;17.10;99.90
29713;DHT22;16623;53.632;10.016;2022-07-23T00:24:24;17.10;99.90
29713;DHT22;16623;53.632;10.016;2022-07-23T00:26:49;17.10;99.90
29713;DHT22;16623;53.632;10.016;2022-07-23T00:29:14;17.10;99.90
29713;DHT22;16623;53.632;10.016;2022-07-23T00:31:40;17.00;99.90
29713;DHT22;16623;53.632;10.016;2022-07-23T00:34:06;17.10;99.90
29713;DHT22;16623;53.632;10.016;2022-07-23T00:36:31;17.00;99.90
29713;DHT22;16623;53.632;10.016;2022-07-23T00:38:57;17.00;99.90
29713;DHT22;16623;53.632;10.016;2022-07-23T00:41:23;17.00;99.90
29713;DHT22;16623;53.632;10.016;2022-07-23T00:43:49;16.90;99.90
29713;DHT22;16623;53.632;10.016;2022-07-23T00:46:19;17.00;99.90
29713;DHT22;16623;53.632;10.016;2022-07-23T00:48:44;17.00;99.90
29713;DHT22;16623;53.632;10.016;2022-07-23T00:51:10;16.90;99.90
29713;DHT22;16623;53.632;10.016;2022-07-23T00:53:35;17.00;99.90
29713;DHT22;16623;53.632;10.016;2022-07-23T00:56:01;17.00;99.90
29713;DHT22;16623;53.632;10.016;2022-07-23T00:58:26;16.90;99.90
29713;DHT22;16623;53.632;10.016;2022-07-23T01:00:52;16.90;99.90
29713;DHT22;16623;53.632;10.016;2022-07-23T01:03:17;16.90;99.90
29713;DHT22;16623;53.632;10.016;2022-07-23T01:05:43;16.80;99.90
29713;DHT22;16623;53.632;10.016;2022-07-23T01:08:09;16.90;99.90
29713;DHT22;16623;53.632;10.016;2022-07-23T01:10:35;16.90;99.90
29713;DHT22;16623;53.632;10.016;2022-07-23T01:13:01;16.80;99.90
29713;DHT22;16623;53.632;10.016;2022-07-23T01:15:27;16.70;99.90
29713;DHT22;16623;53.632;10.016;2022-07-23T01:17:53;16.70;99.90
29713;DHT22;16623;53.632;10.016;2022-07-23T01:20:19;16.70;99.90
29713;DHT22;16623;53.632;10.016;2022-07-23T01:22:44;16.70;99.90
29713;DHT22;16623;53.632;10.016;2022-07-23T01:25:10;16.50;99.90
29713;DHT22;16623;53.632;10.016;2022-07-23T01:27:35;16.70;99.90
29713;DHT22;16623;53.632;10.016;2022-07-23T01:30:01;16.60;99.90
29713;DHT22;16623;53.632;10.016;2022-07-23T01:32:27;16.70;99.90
29713;DHT22;16623;53.632;10.016;2022-07-23T01:34:52;16.70;99.90
29713;DHT22;16623;53.632;10.016;2022-07-23T01:37:18;16.70;99.90
29713;DHT22;16623;53.632;10.016;2022-07-23T01:39:43;16.70;99.90
29713;DHT22;16623;53.632;10.016;2022-07-23T01:42:09;16.70;99.90
29713;DHT22;16623;53.632;10.016;2022-07-23T01:44:34;16.70;99.90
29713;DHT22;16623;53.632;10.016;2022-07-23T01:46:59;16.70;99.90
29713;DHT22;16623;53.632;10.016;2022-07-23T01:49:25;16.70;99.90
29713;DHT22;16623;53.632;10.016;2022-07-23T01:51:50;16.70;99.90
29713;DHT22;16623;53.632;10.016;2022-07-23T01:54:28;16.80;99.90
29713;DHT22;16623;53.632;10.016;2022-07-23T01:56:54;16.70;99.90
29713;DHT22;16623;53.632;10.016;2022-07-23T01:59:19;16.70;99.90
29713;DHT22;16623;53.632;10.016;2022-07-23T02:01:45;16.70;99.90
29713;DHT22;16623;53.632;10.016;2022-07-23T02:04:11;16.80;99.90
29713;DHT22;16623;53.632;10.016;2022-07-23T02:06:36;16.80;99.90
29713;DHT22;16623;53.632;10.016;2022-07-23T02:09:02;16.80;99.90
29713;DHT22;16623;53.632;10.016;2022-07-23T02:11:27;16.70;99.90
29713;DHT22;16623;53.632;10.016;2022-07-23T02:13:52;16.70;99.90
29713;DHT22;16623;53.632;10.016;2022-07-23T02:16:18;16.70;99.90
29713;DHT22;16623;53.632;10.016;2022-07-23T02:18:44;16.60;99.90
29713;DHT22;16623;53.632;10.016;2022-07-23T02:21:12;16.70;99.90
29713;DHT22;16623;53.632;10.016;2022-07-23T02:23:37;16.60;99.90
29713;DHT22;16623;53.632;10.016;2022-07-23T02:26:02;16.50;99.90
29713;DHT22;16623;53.632;10.016;2022-07-23T02:28:31;16.50;99.90
29713;DHT22;16623;53.632;10.016;2022-07-23T02:30:57;16.50;99.90
29713;DHT22;16623;53.632;10.016;2022-07-23T02:33:22;16.50;99.90
29713;DHT22;16623;53.632;10.016;2022-07-23T02:35:48;16.50;99.90
29713;DHT22;16623;53.632;10.016;2022-07-23T02:38:13;16.50;99.90
29713;DHT22;16623;53.632;10.016;2022-07-23T02:40:38;16.40;99.90
29713;DHT22;16623;53.632;10.016;2022-07-23T02:43:04;16.40;99.90
29713;DHT22;16623;53.632;10.016;2022-07-23T02:45:29;16.40;99.90
29713;DHT22;16623;53.632;10.016;2022-07-23T02:47:55;16.30;99.90
29713;DHT22;16623;53.632;10.016;2022-07-23T02:50:21;16.30;99.90
29713;DHT22;16623;53.632;10.016;2022-07-23T02:52:46;16.30;99.90
29713;DHT22;16623;53.632;10.016;2022-07-23T02:55:12;16.20;99.90
29713;DHT22;16623;53.632;10.016;2022-07-23T02:57:37;16.20;99.90
29713;DHT22;16623;53.632;10.016;2022-07-23T03:00:03;15.40;99.90
29713;DHT22;16623;53.632;10.016;2022-07-23T03:02:29;16.20;99.90
29713;DHT22;16623;53.632;10.016;2022-07-23T03:04:54;16.30;99.90
29713;DHT22;16623;53.632;10.016;2022-07-23T03:07:20;16.20;99.90
29713;DHT22;16623;53.632;10.016;2022-07-23T03:09:46;16.20;99.90
29713;DHT22;16623;53.632;10.016;2022-07-23T03:12:12;16.30;99.90
29713;DHT22;16623;53.632;10.016;2022-07-23T03:14:37;16.30;99.90
29713;DHT22;16623;53.632;10.016;2022-07-23T03:17:03;16.30;99.90
29713;DHT22;16623;53.632;10.016;2022-07-23T03:19:28;16.30;99.90
29713;DHT22;16623;53.632;10.016;2022-07-23T03:21:54;16.30;99.90
29713;DHT22;16623;53.632;10.016;2022-07-23T03:24:19;16.20;99.90
29713;DHT22;16623;53.632;10.016;2022-07-23T03:26:44;16.30;99.90
29713;DHT22;16623;53.632;10.016;2022-07-23T03:29:10;16.30;99.90
29713;DHT22;16623;53.632;10.016;2022-07-23T03:31:36;16.40;99.90
29713;DHT22;16623;53.632;10.016;2022-07-23T03:34:03;16.30;99.90
29713;DHT22;16623;53.632;10.016;2022-07-23T03:36:28;16.30;99.90
29713;DHT22;16623;53.632;10.016;2022-07-23T03:38:54;16.30;99.90
29713;DHT22;16623;53.632;10.016;2022-07-23T03:41:19;16.30;99.90
29713;DHT22;16623;53.632;10.016;2022-07-23T03:43:45;16.30;99.90
29713;DHT22;16623;53.632;10.016;2022-07-23T03:46:11;16.30;99.90
29713;DHT22;16623;53.632;10.016;2022-07-23T03:48:36;16.30;99.90
29713;DHT22;16623;53.632;10.016;2022-07-23T03:51:02;16.40;99.90
29713;DHT22;16623;53.632;10.016;2022-07-23T03:53:27;16.30;99.90
29713;DHT22;16623;53.632;10.016;2022-07-23T03:55:53;16.30;99.90
29713;DHT22;16623;53.632;10.016;2022-07-23T03:58:18;16.40;99.90
29713;DHT22;16623;53.632;10.016;2022-07-23T04:00:44;16.40;99.90
29713;DHT22;16623;53.632;10.016;2022-07-23T04:03:09;16.30;99.90
29713;DHT22;16623;53.632;10.016;2022-07-23T04:05:35;16.40;99.90
29713;DHT22;16623;53.632;10.016;2022-07-23T04:08:00;16.40;99.90
29713;DHT22;16623;53.632;10.016;2022-07-23T04:10:25;16.40;99.90
29713;DHT22;16623;53.632;10.016;2022-07-23T04:12:51;16.40;99.90
29713;DHT22;16623;53.632;10.016;2022-07-23T04:15:16;16.50;99.90
29713;DHT22;16623;53.632;10.016;2022-07-23T04:17:42;16.50;99.90
29713;DHT22;16623;53.632;10.016;2022-07-23T04:20:09;16.60;99.90
29713;DHT22;16623;53.632;10.016;2022-07-23T04:22:34;16.60;99.90
29713;DHT22;16623;53.632;10.016;2022-07-23T04:25:00;16.60;99.90
29713;DHT22;16623;53.632;10.016;2022-07-23T04:27:26;16.60;99.90
29713;DHT22;16623;53.632;10.016;2022-07-23T04:29:51;16.60;99.90
29713;DHT22;16623;53.632;10.016;2022-07-23T04:32:17;16.70;99.90
29713;DHT22;16623;53.632;10.016;2022-07-23T04:34:42;16.70;99.90
29713;DHT22;16623;53.632;10.016;2022-07-23T04:37:07;17.60;99.90
29713;DHT22;16623;53.632;10.016;2022-07-23T04:39:33;16.70;99.90
29713;DHT22;16623;53.632;10.016;2022-07-23T04:41:58;16.70;99.90
29713;DHT22;16623;53.632;10.016;2022-07-23T04:44:24;16.60;99.90
29713;DHT22;16623;53.632;10.016;2022-07-23T04:46:49;16.60;99.90
29713;DHT22;16623;53.632;10.016;2022-07-23T04:49:15;16.50;99.90
29713;DHT22;16623;53.632;10.016;2022-07-23T04:51:40;16.60;99.90
29713;DHT22;16623;53.632;10.016;2022-07-23T04:54:06;16.60;99.90
29713;DHT22;16623;53.632;10.016;2022-07-23T04:56:31;16.50;99.90
29713;DHT22;16623;53.632;10.016;2022-07-23T04:58:57;16.60;99.90
29713;DHT22;16623;53.632;10.016;2022-07-23T05:01:22;16.50;99.90
29713;DHT22;16623;53.632;10.016;2022-07-23T05:03:48;16.50;99.90
29713;DHT22;16623;53.632;10.016;2022-07-23T05:06:14;16.40;99.90
29713;DHT22;16623;53.632;10.016;2022-07-23T05:08:39;16.30;99.90
29713;DHT22;16623;53.632;10.016;2022-07-23T05:11:05;16.30;99.90
29713;DHT22;16623;53.632;10.016;2022-07-23T05:13:30;16.40;99.90
29713;DHT22;16623;53.632;10.016;2022-07-23T05:15:56;16.30;99.90
29713;DHT22;16623;53.632;10.016;2022-07-23T05:18:21;16.30;99.90
29713;DHT22;16623;53.632;10.016;2022-07-23T05:20:47;16.20;99.90
29713;DHT22;16623;53.632;10.016;2022-07-23T05:23:12;16.30;99.90
29713;DHT22;16623;53.632;10.016;2022-07-23T05:25:37;16.30;99.90
29713;DHT22;16623;53.632;10.016;2022-07-23T05:28:03;16.40;99.90
29713;DHT22;16623;53.632;10.016;2022-07-23T05:30:28;16.30;99.90
29713;DHT22;16623;53.632;10.016;2022-07-23T05:32:54;16.30;99.90
29713;DHT22;16623;53.632;10.016;2022-07-23T05:35:19;16.40;99.90
29713;DHT22;16623;53.632;10.016;2022-07-23T05:37:45;16.30;99.90
29713;DHT22;16623;53.632;10.016;2022-07-23T05:40:10;16.40;99.90
29713;DHT22;16623;53.632;10.016;2022-07-23T05:42:36;16.40;99.90
29713;DHT22;16623;53.632;10.016;2022-07-23T05:45:02;16.50;99.90
29713;DHT22;16623;53.632;10.016;2022-07-23T05:47:28;16.50;99.90
29713;DHT22;16623;53.632;10.016;2022-07-23T05:49:53;16.50;99.90
29713;DHT22;16623;53.632;10.016;2022-07-23T05:52:19;16.50;99.90
29713;DHT22;16623;53.632;10.016;2022-07-23T05:54:44;16.50;99.90
29713;DHT22;16623;53.632;10.016;2022-07-23T05:57:10;16.60;99.90
29713;DHT22;16623;53.632;10.016;2022-07-23T05:59:36;16.60;99.90
29713;DHT22;16623;53.632;10.016;2022-07-23T06:02:01;16.60;99.90
29713;DHT22;16623;53.632;10.016;2022-07-23T06:04:26;16.70;99.90
29713;DHT22;16623;53.632;10.016;2022-07-23T06:06:52;16.70;99.90
29713;DHT22;16623;53.632;10.016;2022-07-23T06:09:17;16.70;99.90
29713;DHT22;16623;53.632;10.016;2022-07-23T06:11:43;16.70;99.90
29713;DHT22;16623;53.632;10.016;2022-07-23T06:14:09;16.80;99.90
29713;DHT22;16623;53.632;10.016;2022-07-23T06:16:34;16.80;99.90
29713;DHT22;16623;53.632;10.016;2022-07-23T06:19:00;16.80;99.90
29713;DHT22;16623;53.632;10.016;2022-07-23T06:21:25;16.80;99.90
29713;DHT22;16623;53.632;10.016;2022-07-23T06:23:51;15.60;99.90
29713;DHT22;16623;53.632;10.016;2022-07-23T06:26:16;17.00;99.90
29713;DHT22;16623;53.632;10.016;2022-07-23T06:28:41;17.00;99.90
29713;DHT22;16623;53.632;10.016;2022-07-23T06:31:07;17.00;99.90
29713;DHT22;16623;53.632;10.016;2022-07-23T06:33:33;17.00;99.90
29713;DHT22;16623;53.632;10.016;2022-07-23T06:35:58;17.10;99.90
29713;DHT22;16623;53.632;10.016;2022-07-23T06:38:24;17.10;99.90
29713;DHT22;16623;53.632;10.016;2022-07-23T06:40:49;16.30;99.90
29713;DHT22;16623;53.632;10.016;2022-07-23T06:43:15;17.30;99.90
29713;DHT22;16623;53.632;10.016;2022-07-23T06:45:40;17.40;99.90
29713;DHT22;16623;53.632;10.016;2022-07-23T06:48:06;17.40;99.90
29713;DHT22;16623;53.632;10.016;2022-07-23T06:50:31;17.40;99.90
29713;DHT22;16623;53.632;10.016;2022-07-23T06:52:56;17.50;99.90
29713;DHT22;16623;53.632;10.016;2022-07-23T06:55:22;17.50;99.90
29713;DHT22;16623;53.632;10.016;2022-07-23T06:57:47;17.60;99.90
29713;DHT22;16623;53.632;10.016;2022-07-23T07:00:13;17.60;99.90
29713;DHT22;16623;53.632;10.016;2022-07-23T07:02:39;17.50;99.90
29713;DHT22;16623;53.632;10.016;2022-07-23T07:05:04;17.50;99.90
29713;DHT22;16623;53.632;10.016;2022-07-23T07:07:29;17.60;99.90
29713;DHT22;16623;53.632;10.016;2022-07-23T07:09:55;17.50;99.90
29713;DHT22;16623;53.632;10.016;2022-07-23T07:12:20;17.50;99.90
29713;DHT22;16623;53.632;10.016;2022-07-23T07:14:46;17.60;99.90
29713;DHT22;16623;53.632;10.016;2022-07-23T07:17:11;17.60;99.90
29713;DHT22;16623;53.632;10.016;2022-07-23T07:19:37;17.60;99.90
29713;DHT22;16623;53.632;10.016;2022-07-23T07:22:02;17.30;99.90
29713;DHT22;16623;53.632;10.016;2022-07-23T07:24:29;17.10;99.90
29713;DHT22;16623;53.632;10.016;2022-07-23T07:26:54;17.00;99.90
29713;DHT22;16623;53.632;10.016;2022-07-23T07:29:20;16.80;99.90
29713;DHT22;16623;53.632;10.016;2022-07-23T07:31:45;16.70;99.90
29713;DHT22;16623;53.632;10.016;2022-07-23T07:34:11;16.60;99.90
29713;DHT22;16623;53.632;10.016;2022-07-23T07:36:36;16.50;99.90
29713;DHT22;16623;53.632;10.016;2022-07-23T07:39:05;16.40;99.90
29713;DHT22;16623;53.632;10.016;2022-07-23T07:41:32;16.40;99.90
29713;DHT22;16623;53.632;10.016;2022-07-23T07:43:57;16.50;99.90
29713;DHT22;16623;53.632;10.016;2022-07-23T07:46:23;16.60;99.90
29713;DHT22;16623;53.632;10.016;2022-07-23T07:48:49;16.60;99.90
29713;DHT22;16623;53.632;10.016;2022-07-23T07:51:15;16.70;99.90
29713;DHT22;16623;53.632;10.016;2022-07-23T07:53:41;16.80;99.90
29713;DHT22;16623;53.632;10.016;2022-07-23T07:56:06;16.90;99.90
29713;DHT22;16623;53.632;10.016;2022-07-23T07:58:32;16.90;99.90
29713;DHT22;16623;53.632;10.016;2022-07-23T08:00:57;17.10;99.90
29713;DHT22;16623;53.632;10.016;2022-07-23T08:03:22;17.30;99.90
29713;DHT22;16623;53.632;10.016;2022-07-23T08:05:48;17.50;99.90
29713;DHT22;16623;53.632;10.016;2022-07-23T08:08:13;17.70;99.90
29713;DHT22;16623;53.632;10.016;2022-07-23T08:10:40;17.70;99.90
29713;DHT22;16623;53.632;10.016;2022-07-23T08:13:05;17.80;99.90
29713;DHT22;16623;53.632;10.016;2022-07-23T08:15:31;17.70;99.90
29713;DHT22;16623;53.632;10.016;2022-07-23T08:17:56;17.50;99.90
29713;DHT22;16623;53.632;10.016;2022-07-23T08:20:23;17.40;99.90
29713;DHT22;16623;53.632;10.016;2022-07-23T08:22:58;17.20;99.90
29713;DHT22;16623;53.632;10.016;2022-07-23T08:25:26;17.10;99.90
29713;DHT22;16623;53.632;10.016;2022-07-23T08:27:52;17.10;99.90
29713;DHT22;16623;53.632;10.016;2022-07-23T08:30:17;17.20;99.90
29713;DHT22;16623;53.632;10.016;2022-07-23T08:33:00;17.30;99.90
29713;DHT22;16623;53.632;10.016;2022-07-23T08:35:35;17.50;99.90
29713;DHT22;16623;53.632;10.016;2022-07-23T08:38:03;17.50;99.90
29713;DHT22;16623;53.632;10.016;2022-07-23T08:40:30;17.70;99.90
29713;DHT22;16623;53.632;10.016;2022-07-23T08:42:56;17.80;99.90
29713;DHT22;16623;53.632;10.016;2022-07-23T08:45:22;17.80;99.90
29713;DHT22;16623;53.632;10.016;2022-07-23T08:47:52;18.00;99.90
29713;DHT22;16623;53.632;10.016;2022-07-23T08:50:18;18.10;99.90
29713;DHT22;16623;53.632;10.016;2022-07-23T08:52:44;18.30;99.90
29713;DHT22;16623;53.632;10.016;2022-07-23T08:55:10;18.20;99.90
29713;DHT22;16623;53.632;10.016;2022-07-23T08:57:35;18.30;99.90
29713;DHT22;16623;53.632;10.016;2022-07-23T09:00:02;18.40;99.90
29713;DHT22;16623;53.632;10.016;2022-07-23T09:02:28;18.70;99.90
29713;DHT22;16623;53.632;10.016;2022-07-23T09:04:54;18.80;99.90
29713;DHT22;16623;53.632;10.016;2022-07-23T09:07:19;18.90;99.90
29713;DHT22;16623;53.632;10.016;2022-07-23T09:09:44;19.00;99.90
29713;DHT22;16623;53.632;10.016;2022-07-23T09:12:10;19.20;99.90
29713;DHT22;16623;53.632;10.016;2022-07-23T09:14:36;19.20;99.90
29713;DHT22;16623;53.632;10.016;2022-07-23T09:17:08;19.10;99.90
29713;DHT22;16623;53.632;10.016;2022-07-23T09:19:33;19.20;99.90
29713;DHT22;16623;53.632;10.016;2022-07-23T09:22:15;19.40;99.90
29713;DHT22;16623;53.632;10.016;2022-07-23T09:25:01;19.40;99.90
29713;DHT22;16623;53.632;10.016;2022-07-23T09:27:26;19.30;99.90
29713;DHT22;16623;53.632;10.016;2022-07-23T09:30:09;19.40;99.90
29713;DHT22;16623;53.632;10.016;2022-07-23T09:32:35;19.50;99.90
29713;DHT22;16623;53.632;10.016;2022-07-23T09:35:00;19.50;99.90
29713;DHT22;16623;53.632;10.016;2022-07-23T09:37:26;19.50;99.90
29713;DHT22;16623;53.632;10.016;2022-07-23T09:39:51;19.50;99.90
29713;DHT22;16623;53.632;10.016;2022-07-23T09:42:28;19.50;99.90
29713;DHT22;16623;53.632;10.016;2022-07-23T09:44:57;19.50;99.90
29713;DHT22;16623;53.632;10.016;2022-07-23T09:47:24;19.40;99.90
29713;DHT22;16623;53.632;10.016;2022-07-23T09:52:32;19.30;99.90
29713;DHT22;16623;53.632;10.016;2022-07-23T09:55:02;19.30;99.90
29713;DHT22;16623;53.632;10.016;2022-07-23T09:57:28;19.20;99.90
29713;DHT22;16623;53.632;10.016;2022-07-23T09:59:56;19.20;99.90
29713;DHT22;16623;53.632;10.016;2022-07-23T10:02:22;19.10;99.90
29713;DHT22;16623;53.632;10.016;2022-07-23T10:04:48;19.00;99.90
29713;DHT22;16623;53.632;10.016;2022-07-23T10:07:14;18.90;99.90
29713;DHT22;16623;53.632;10.016;2022-07-23T10:09:42;18.70;99.90
29713;DHT22;16623;53.632;10.016;2022-07-23T10:12:13;18.70;99.90
29713;DHT22;16623;53.632;10.016;2022-07-23T10:14:48;18.80;99.90
29713;DHT22;16623;53.632;10.016;2022-07-23T10:17:15;18.70;99.90
29713;DHT22;16623;53.632;10.016;2022-07-23T10:19:40;18.60;99.90
29713;DHT22;16623;53.632;10.016;2022-07-23T10:22:12;18.60;99.90
29713;DHT22;16623;53.632;10.016;2022-07-23T10:29:57;18.60;99.90
29713;DHT22;16623;53.632;10.016;2022-07-23T10:32:26;18.80;99.90
29713;DHT22;16623;53.632;10.016;2022-07-23T10:44:10;19.20;99.90
29713;DHT22;16623;53.632;10.016;2022-07-23T10:46:58;19.10;99.90
29713;DHT22;16623;53.632;10.016;2022-07-23T10:49:32;19.10;99.90
29713;DHT22;16623;53.632;10.016;2022-07-23T10:54:39;18.90;99.90
29713;DHT22;16623;53.632;10.016;2022-07-23T10:57:05;18.90;99.90
29713;DHT22;16623;53.632;10.016;2022-07-23T10:59:32;18.90;99.90
29713;DHT22;16623;53.632;10.016;2022-07-23T11:02:21;19.10;99.90
29713;DHT22;16623;53.632;10.016;2022-07-23T11:04:48;19.20;99.90
29713;DHT22;16623;53.632;10.016;2022-07-23T11:07:15;19.20;99.90
29713;DHT22;16623;53.632;10.016;2022-07-23T11:09:41;19.10;99.90
29713;DHT22;16623;53.632;10.016;2022-07-23T11:17:23;19.00;99.90
29713;DHT22;16623;53.632;10.016;2022-07-23T11:22:34;19.20;99.90
29713;DHT22;16623;53.632;10.016;2022-07-23T11:25:00;19.30;99.90
29713;DHT22;16623;53.632;10.016;2022-07-23T11:27:38;19.40;99.90
29713;DHT22;16623;53.632;10.016;2022-07-23T11:30:04;19.50;99.90
29713;DHT22;16623;53.632;10.016;2022-07-23T11:32:32;19.70;99.90
29713;DHT22;16623;53.632;10.016;2022-07-23T11:34:59;19.70;99.90
29713;DHT22;16623;53.632;10.016;2022-07-23T11:37:37;19.90;99.90
29713;DHT22;16623;53.632;10.016;2022-07-23T11:40:07;19.80;99.90
29713;DHT22;16623;53.632;10.016;2022-07-23T11:42:34;19.90;99.90
29713;DHT22;16623;53.632;10.016;2022-07-23T11:45:04;19.90;99.90
29713;DHT22;16623;53.632;10.016;2022-07-23T11:47:30;19.80;99.90
29713;DHT22;16623;53.632;10.016;2022-07-23T11:50:00;19.90;99.90
29713;DHT22;16623;53.632;10.016;2022-07-23T11:52:25;19.90;99.90
29713;DHT22;16623;53.632;10.016;2022-07-23T11:54:57;20.00;99.90
29713;DHT22;16623;53.632;10.016;2022-07-23T11:57:24;20.10;99.90
29713;DHT22;16623;53.632;10.016;2022-07-23T11:59:51;19.70;99.90
29713;DHT22;16623;53.632;10.016;2022-07-23T12:02:19;20.40;99.90
29713;DHT22;16623;53.632;10.016;2022-07-23T12:04:45;20.50;99.90
29713;DHT22;16623;53.632;10.016;2022-07-23T12:09:51;20.40;99.90
29713;DHT22;16623;53.632;10.016;2022-07-23T12:12:16;20.30;99.90
29713;DHT22;16623;53.632;10.016;2022-07-23T12:17:13;20.30;99.90
29713;DHT22;16623;53.632;10.016;2022-07-23T12:19:39;20.30;99.90
29713;DHT22;16623;53.632;10.016;2022-07-23T12:22:04;20.30;99.90
29713;DHT22;16623;53.632;10.016;2022-07-23T12:24:30;20.30;99.90
29713;DHT22;16623;53.632;10.016;2022-07-23T12:27:11;20.30;99.90
29713;DHT22;16623;53.632;10.016;2022-07-23T12:29:37;20.40;99.90
29713;DHT22;16623;53.632;10.016;2022-07-23T12:32:15;20.40;99.90
29713;DHT22;16623;53.632;10.016;2022-07-23T12:34:41;20.40;99.90
29713;DHT22;16623;53.632;10.016;2022-07-23T12:37:07;20.30;99.90
29713;DHT22;16623;53.632;10.016;2022-07-23T12:39:33;20.30;99.90
29713;DHT22;16623;53.632;10.016;2022-07-23T12:41:59;20.30;99.90
29713;DHT22;16623;53.632;10.016;2022-07-23T12:44:25;20.80;99.90
29713;DHT22;16623;53.632;10.016;2022-07-23T12:46:54;20.50;99.90
29713;DHT22;16623;53.632;10.016;2022-07-23T12:49:25;20.60;99.90
29713;DHT22;16623;53.632;10.016;2022-07-23T12:51:51;20.60;99.90
29713;DHT22;16623;53.632;10.016;2022-07-23T12:54:17;20.60;99.90
29713;DHT22;16623;53.632;10.016;2022-07-23T12:56:46;20.70;99.90
29713;DHT22;16623;53.632;10.016;2022-07-23T12:59:13;20.80;99.90
29713;DHT22;16623;53.632;10.016;2022-07-23T13:02:02;20.80;99.90
29713;DHT22;16623;53.632;10.016;2022-07-23T13:04:27;20.90;99.90
29713;DHT22;16623;53.632;10.016;2022-07-23T13:06:57;20.80;99.90
29713;DHT22;16623;53.632;10.016;2022-07-23T13:09:24;20.80;99.90
29713;DHT22;16623;53.632;10.016;2022-07-23T13:11:50;20.80;99.90
29713;DHT22;16623;53.632;10.016;2022-07-23T13:14:16;21.00;99.90
29713;DHT22;16623;53.632;10.016;2022-07-23T13:16:43;21.10;99.90
29713;DHT22;16623;53.632;10.016;2022-07-23T13:19:08;21.00;99.90
29713;DHT22;16623;53.632;10.016;2022-07-23T13:21:34;20.90;99.90
29713;DHT22;16623;53.632;10.016;2022-07-23T13:23:59;20.90;99.90
29713;DHT22;16623;53.632;10.016;2022-07-23T13:26:26;20.80;99.90
29713;DHT22;16623;53.632;10.016;2022-07-23T13:28:51;20.60;99.90
29713;DHT22;16623;53.632;10.016;2022-07-23T13:31:17;20.60;99.90
29713;DHT22;16623;53.632;10.016;2022-07-23T13:33:42;20.50;99.90
29713;DHT22;16623;53.632;10.016;2022-07-23T13:36:08;20.50;99.90
29713;DHT22;16623;53.632;10.016;2022-07-23T13:38:33;20.50;99.90
29713;DHT22;16623;53.632;10.016;2022-07-23T13:41:00;21.40;99.90
29713;DHT22;16623;53.632;10.016;2022-07-23T13:43:28;20.30;99.90
29713;DHT22;16623;53.632;10.016;2022-07-23T13:45:54;20.30;99.90
29713;DHT22;16623;53.632;10.016;2022-07-23T13:48:19;20.20;99.90
29713;DHT22;16623;53.632;10.016;2022-07-23T13:50:45;20.20;99.90
29713;DHT22;16623;53.632;10.016;2022-07-23T13:53:12;20.20;99.90
29713;DHT22;16623;53.632;10.016;2022-07-23T13:55:38;20.20;99.90
29713;DHT22;16623;53.632;10.016;2022-07-23T13:58:05;20.30;99.90
29713;DHT22;16623;53.632;10.016;2022-07-23T14:00:31;20.30;99.90
29713;DHT22;16623;53.632;10.016;2022-07-23T14:02:57;20.50;99.90
29713;DHT22;16623;53.632;10.016;2022-07-23T14:05:22;20.50;99.90
29713;DHT22;16623;53.632;10.016;2022-07-23T14:07:51;20.60;99.90
29713;DHT22;16623;53.632;10.016;2022-07-23T14:10:17;20.50;99.90
29713;DHT22;16623;53.632;10.016;2022-07-23T14:12:43;20.60;99.90
29713;DHT22;16623;53.632;10.016;2022-07-23T14:15:09;20.30;99.90
29713;DHT22;16623;53.632;10.016;2022-07-23T14:17:38;20.30;99.90
29713;DHT22;16623;53.632;10.016;2022-07-23T14:20:05;20.40;99.90
29713;DHT22;16623;53.632;10.016;2022-07-23T14:22:31;20.50;99.90
29713;DHT22;16623;53.632;10.016;2022-07-23T14:24:56;20.60;99.90
29713;DHT22;16623;53.632;10.016;2022-07-23T14:27:25;20.60;99.90
29713;DHT22;16623;53.632;10.016;2022-07-23T14:29:52;20.70;99.90
29713;DHT22;16623;53.632;10.016;2022-07-23T14:32:17;20.70;99.90
29713;DHT22;16623;53.632;10.016;2022-07-23T14:34:43;20.60;99.90
29713;DHT22;16623;53.632;10.016;2022-07-23T14:37:09;20.50;99.90
29713;DHT22;16623;53.632;10.016;2022-07-23T14:39:34;20.30;99.90
29713;DHT22;16623;53.632;10.016;2022-07-23T14:42:00;20.30;99.90
29713;DHT22;16623;53.632;10.016;2022-07-23T14:44:25;20.30;99.90
29713;DHT22;16623;53.632;10.016;2022-07-23T14:46:51;20.40;99.90
29713;DHT22;16623;53.632;10.016;2022-07-23T14:49:17;20.60;99.90
29713;DHT22;16623;53.632;10.016;2022-07-23T14:51:43;20.60;99.90
29713;DHT22;16623;53.632;10.016;2022-07-23T14:54:10;20.70;99.90
29713;DHT22;16623;53.632;10.016;2022-07-23T14:56:35;20.80;99.90
29713;DHT22;16623;53.632;10.016;2022-07-23T14:59:02;20.70;99.90
29713;DHT22;16623;53.632;10.016;2022-07-23T15:01:28;20.50;99.90
29713;DHT22;16623;53.632;10.016;2022-07-23T15:03:53;20.50;99.90
29713;DHT22;16623;53.632;10.016;2022-07-23T15:06:19;20.40;99.90
29713;DHT22;16623;53.632;10.016;2022-07-23T15:08:44;20.30;99.90
29713;DHT22;16623;53.632;10.016;2022-07-23T15:11:10;20.20;99.90
29713;DHT22;16623;53.632;10.016;2022-07-23T15:13:36;20.10;99.90
29713;DHT22;16623;53.632;10.016;2022-07-23T15:16:02;20.10;99.90
29713;DHT22;16623;53.632;10.016;2022-07-23T15:18:28;20.20;99.90
29713;DHT22;16623;53.632;10.016;2022-07-23T15:20:53;20.10;99.90
29713;DHT22;16623;53.632;10.016;2022-07-23T15:23:19;20.00;99.90
29713;DHT22;16623;53.632;10.016;2022-07-23T15:25:44;20.00;99.90
29713;DHT22;16623;53.632;10.016;2022-07-23T15:28:10;20.00;99.90
29713;DHT22;16623;53.632;10.016;2022-07-23T15:30:35;20.00;99.90
29713;DHT22;16623;53.632;10.016;2022-07-23T15:33:00;20.10;99.90
29713;DHT22;16623;53.632;10.016;2022-07-23T15:35:26;20.00;99.90
29713;DHT22;16623;53.632;10.016;2022-07-23T15:37:52;19.90;99.90
29713;DHT22;16623;53.632;10.016;2022-07-23T15:40:17;20.00;99.90
29713;DHT22;16623;53.632;10.016;2022-07-23T15:42:42;20.10;99.90